createdAt,value
2023-02-16T00:00:33.877Z,689.95
2023-02-16T00:03:22.961Z,552.30
2023-02-16T00:06:18.751Z,552.28
2023-02-16T00:09:06.319Z,704.95
2023-02-16T00:12:12.913Z,552.97
2023-02-16T00:15:00.503Z,781.92
2023-02-16T00:17:48.093Z,659.00
2023-02-16T00:20:35.663Z,572.17
2023-02-16T00:23:24.568Z,607.60
2023-02-16T00:26:21.701Z,465.88
2023-02-16T00:29:21.376Z,627.50
2023-02-16T00:32:12.716Z,690.22
2023-02-16T00:35:01.172Z,853.47
2023-02-16T00:37:49.342Z,806.30
2023-02-16T00:40:37.105Z,781.80
2023-02-16T00:43:28.223Z,615.42
2023-02-16T00:46:15.856Z,755.92
2023-02-16T00:49:04.256Z,615.53
2023-02-16T00:51:52.405Z,776.70
2023-02-16T00:54:40.098Z,685.42
2023-02-16T00:57:32.349Z,798.83
2023-02-16T01:00:24.238Z,602.35
2023-02-16T01:03:25.796Z,653.45
2023-02-16T01:06:31.894Z,819.55
2023-02-16T01:09:39.690Z,657.55
2023-02-16T01:12:27.500Z,681.72
2023-02-16T01:15:19.382Z,827.92
2023-02-16T01:18:07.553Z,494.98
2023-02-16T01:20:56.117Z,692.38
2023-02-16T01:23:43.897Z,626.47
2023-02-16T01:26:35.350Z,731.45
2023-02-16T01:29:23.049Z,609.50
2023-02-16T01:32:12.650Z,778.38
2023-02-16T01:35:00.375Z,772.88
2023-02-16T01:37:48.654Z,727.17
2023-02-16T01:40:42.852Z,793.88
2023-02-16T01:43:44.674Z,671.13
2023-02-16T01:46:56.909Z,828.10
2023-02-16T01:49:44.637Z,850.50
2023-02-16T01:52:35.743Z,702.25
2023-02-16T01:55:29.689Z,840.50
2023-02-16T01:58:36.231Z,802.75
2023-02-16T02:01:38.484Z,752.58
2023-02-16T02:04:48.078Z,630.67
2023-02-16T02:08:04.340Z,916.83
2023-02-16T02:11:12.362Z,793.70
2023-02-16T02:14:08.947Z,793.47
2023-02-16T02:16:59.551Z,633.47
2023-02-16T02:19:52.796Z,637.45
2023-02-16T02:23:27.052Z,579.30
2023-02-16T02:26:29.933Z,584.33
2023-02-16T02:29:38.811Z,627.33
2023-02-16T02:33:05.477Z,814.05
2023-02-16T02:36:20.133Z,778.25
2023-02-16T02:39:07.652Z,613.30
2023-02-16T02:42:18.428Z,755.13
2023-02-16T02:45:26.834Z,737.65
2023-02-16T02:48:14.390Z,811.22
2023-02-16T02:51:30.460Z,724.38
2023-02-16T02:54:52.334Z,751.83
2023-02-16T02:58:06.282Z,810.55
2023-02-16T03:00:54.828Z,578.88
2023-02-16T03:03:47.811Z,612.00
2023-02-16T03:06:44.264Z,404.50
2023-02-16T03:09:31.928Z,565.42
2023-02-16T03:12:38.327Z,550.03
2023-02-16T03:15:27.681Z,552.90
2023-02-16T03:18:35.201Z,457.45
2023-02-16T03:21:43.713Z,620.58
2023-02-16T03:24:51.929Z,545.47
2023-02-16T03:28:02.576Z,546.15
2023-02-16T03:30:51.605Z,456.20
2023-02-16T03:33:40.546Z,524.00
2023-02-16T03:36:31.923Z,676.28
2023-02-16T03:39:20.743Z,538.15
2023-02-16T03:42:08.424Z,724.08
2023-02-16T03:44:56.373Z,776.95
2023-02-16T03:47:43.874Z,680.78
2023-02-16T03:50:31.797Z,644.17
2023-02-16T03:53:19.361Z,670.70
2023-02-16T03:56:06.886Z,489.90
2023-02-16T03:58:54.684Z,520.03
2023-02-16T04:01:42.345Z,507.02
2023-02-16T04:04:29.909Z,596.47
2023-02-16T04:07:17.515Z,424.27
2023-02-16T04:10:05.575Z,547.10
2023-02-16T04:12:53.212Z,394.85
2023-02-16T04:15:43.739Z,479.52
2023-02-16T04:18:31.381Z,433.13
2023-02-16T04:21:18.910Z,537.13
2023-02-16T04:24:06.736Z,438.05
2023-02-16T04:26:54.288Z,433.52
2023-02-16T04:29:42.075Z,428.00
2023-02-16T04:32:30.256Z,470.02
2023-02-16T04:35:21.338Z,463.85
2023-02-16T04:38:08.962Z,448.48
2023-02-16T04:40:59.294Z,638.38
2023-02-16T04:43:46.897Z,608.67
2023-02-16T04:46:34.503Z,543.17
2023-02-16T04:49:22.736Z,479.55
2023-02-16T04:52:13.696Z,447.48
2023-02-16T04:55:04.858Z,455.92
2023-02-16T04:57:55.604Z,371.85
2023-02-16T05:00:43.680Z,426.38
2023-02-16T05:03:31.401Z,327.20
2023-02-16T05:06:19.316Z,323.30
2023-02-16T05:09:07.888Z,390.45
2023-02-16T05:12:14.104Z,373.85
2023-02-16T05:15:01.803Z,358.10
2023-02-16T05:17:49.395Z,367.95
2023-02-16T05:20:55.725Z,356.50
2023-02-16T05:23:43.229Z,374.00
2023-02-16T05:26:35.919Z,365.73
2023-02-16T05:29:23.608Z,361.95
2023-02-16T05:32:11.712Z,446.23
2023-02-16T05:34:59.305Z,496.30
2023-02-16T05:37:46.732Z,339.52
2023-02-16T05:40:34.309Z,340.67
2023-02-16T05:43:21.879Z,326.35
2023-02-16T05:46:09.899Z,389.38
2023-02-16T05:48:57.595Z,340.88
2023-02-16T05:51:45.982Z,342.85
2023-02-16T05:54:33.644Z,461.42
2023-02-16T05:57:21.259Z,425.75
2023-02-16T06:00:10.089Z,439.58
2023-02-16T06:02:57.685Z,499.08
2023-02-16T06:05:45.466Z,440.70
2023-02-16T06:08:37.175Z,469.50
2023-02-16T06:11:36.707Z,484.17
2023-02-16T06:14:24.322Z,424.48
2023-02-16T06:17:11.871Z,373.98
2023-02-16T06:20:02.647Z,432.13
2023-02-16T06:22:50.373Z,442.42
2023-02-16T06:25:38.279Z,424.92
2023-02-16T06:28:25.869Z,444.27
2023-02-16T06:31:16.164Z,414.85
2023-02-16T06:34:04.712Z,406.92
2023-02-16T06:36:52.287Z,376.02
2023-02-16T06:39:39.893Z,433.02
2023-02-16T06:42:27.509Z,367.95
2023-02-16T06:45:15.135Z,377.40
2023-02-16T06:48:02.593Z,488.30
2023-02-16T06:50:50.787Z,426.55
2023-02-16T06:53:38.227Z,444.48
2023-02-16T06:56:28.487Z,437.73
2023-02-16T06:59:16.050Z,369.40
2023-02-16T07:02:09.934Z,374.15
2023-02-16T07:04:57.554Z,389.73
2023-02-16T07:07:45.133Z,406.95
2023-02-16T07:10:47.692Z,447.75
2023-02-16T07:16:24.369Z,437.80
2023-02-16T07:19:12.318Z,430.73
2023-02-16T07:22:01.316Z,521.35
2023-02-16T07:24:49.033Z,462.48
2023-02-16T07:27:36.767Z,519.92
2023-02-16T07:30:27.661Z,482.25
2023-02-16T07:33:16.220Z,398.48
2023-02-16T07:36:04.919Z,365.98
2023-02-16T07:38:56.123Z,266.38
2023-02-16T07:41:44.066Z,242.57
2023-02-16T07:44:31.897Z,289.58
2023-02-16T07:47:19.587Z,267.85
2023-02-16T07:50:08.875Z,307.67
2023-02-16T07:53:00.104Z,272.55
2023-02-16T07:55:47.610Z,323.65
2023-02-16T07:58:35.053Z,302.25
2023-02-16T08:01:23.409Z,385.45
2023-02-16T08:04:11.363Z,408.25
2023-02-16T08:06:59.632Z,373.65
2023-02-16T08:09:50.082Z,451.58
2023-02-16T08:12:40.026Z,492.58
2023-02-16T08:15:27.462Z,480.77
2023-02-16T08:18:15.257Z,446.92
2023-02-16T08:21:14.606Z,479.83
2023-02-16T08:24:05.666Z,490.23
2023-02-16T08:26:53.976Z,422.35
2023-02-16T08:29:42.586Z,478.17
2023-02-16T08:32:32.027Z,450.15
2023-02-16T08:35:20.374Z,563.88
2023-02-16T08:38:09.350Z,491.45
2023-02-16T08:40:59.728Z,540.65
2023-02-16T08:43:48.215Z,571.28
2023-02-16T08:46:39.195Z,452.95
2023-02-16T08:49:27.682Z,450.20
2023-02-16T08:52:15.589Z,480.48
2023-02-16T08:55:03.760Z,507.38
2023-02-16T08:57:51.348Z,454.40
2023-02-16T09:00:42.341Z,509.15
2023-02-16T09:03:33.078Z,462.77
2023-02-16T09:06:22.949Z,435.92
2023-02-16T09:09:11.091Z,416.73
2023-02-16T09:11:59.524Z,368.70
2023-02-16T09:14:47.208Z,302.52
2023-02-16T09:17:35.050Z,321.35
2023-02-16T09:20:26.089Z,287.67
2023-02-16T09:23:20.341Z,265.23
2023-02-16T09:26:14.064Z,262.75
2023-02-16T09:29:07.173Z,219.65
2023-02-16T09:31:55.073Z,279.60
2023-02-16T09:34:44.902Z,264.77
2023-02-16T09:37:33.382Z,236.98
2023-02-16T09:40:21.694Z,204.40
2023-02-16T09:43:39.765Z,219.43
2023-02-16T09:46:30.470Z,175.88
2023-02-16T09:49:44.937Z,163.27
2023-02-16T09:52:40.501Z,156.35
2023-02-16T09:55:38.422Z,141.27
2023-02-16T09:58:46.676Z,145.13
2023-02-16T10:01:34.968Z,109.15
2023-02-16T10:04:31.480Z,112.53
2023-02-16T10:07:47.738Z,132.02
2023-02-16T10:10:51.030Z,102.78
2023-02-16T10:13:49.557Z,117.00
2023-02-16T10:16:42.681Z,103.05
2023-02-16T10:19:54.823Z,89.65
2023-02-16T10:23:11.569Z,88.97
2023-02-16T10:26:24.774Z,85.68
2023-02-16T10:29:19.059Z,89.45
2023-02-16T10:32:26.984Z,84.18
2023-02-16T10:35:20.840Z,104.55
2023-02-16T10:41:38.167Z,82.72
2023-02-16T10:44:33.307Z,80.28
2023-02-16T10:47:30.284Z,76.70
2023-02-16T10:50:26.788Z,80.82
2023-02-16T10:53:50.010Z,71.38
2023-02-16T10:56:54.160Z,69.65
2023-02-16T11:02:43.647Z,76.82
2023-02-16T11:05:38.263Z,86.22
2023-02-16T11:08:46.126Z,79.45
2023-02-16T11:11:42.691Z,83.40
2023-02-16T11:14:31.533Z,91.57
2023-02-16T11:17:22.495Z,96.55
2023-02-16T11:20:28.829Z,88.90
2023-02-16T11:23:32.025Z,91.47
2023-02-16T11:26:19.757Z,100.35
2023-02-16T11:29:19.585Z,95.45
2023-02-16T11:32:13.316Z,93.93
2023-02-16T11:35:00.854Z,84.50
2023-02-16T11:37:51.353Z,90.03
2023-02-16T11:40:38.861Z,84.75
2023-02-16T11:43:32.843Z,74.85
2023-02-16T11:49:28.659Z,84.72
2023-02-16T11:52:24.335Z,87.20
2023-02-16T11:55:24.236Z,84.97
2023-02-16T11:58:16.756Z,82.65
2023-02-16T12:01:28.318Z,74.70
2023-02-16T12:04:50.843Z,75.95
2023-02-16T12:08:06.612Z,76.63
2023-02-16T12:11:25.560Z,85.35
2023-02-16T12:14:38.060Z,78.05
2023-02-16T12:17:35.188Z,80.43
2023-02-16T12:20:49.401Z,76.35
2023-02-16T12:23:39.911Z,65.28
2023-02-16T12:26:39.084Z,66.07
2023-02-16T12:29:27.083Z,63.47
2023-02-16T12:32:23.040Z,60.03
2023-02-16T12:35:33.347Z,61.10
2023-02-16T12:38:52.240Z,51.53
2023-02-16T12:41:58.252Z,64.93
2023-02-16T12:44:50.372Z,58.72
2023-02-16T12:48:20.382Z,59.13
2023-02-16T12:51:12.979Z,63.63
2023-02-16T12:54:11.723Z,61.75
2023-02-16T12:57:10.563Z,65.93
2023-02-16T13:00:11.591Z,58.90
2023-02-16T13:03:17.444Z,63.05
2023-02-16T13:06:08.542Z,57.70
2023-02-16T13:09:29.436Z,63.30
2023-02-16T13:12:47.246Z,64.72
2023-02-16T13:15:51.031Z,57.05
2023-02-16T13:18:42.655Z,60.35
2023-02-16T13:21:51.636Z,63.97
2023-02-16T13:25:14.702Z,62.95
2023-02-16T13:28:22.955Z,64.57
2023-02-16T13:31:37.034Z,64.80
2023-02-16T13:35:01.802Z,60.78
2023-02-16T13:41:02.992Z,67.88
2023-02-16T13:43:58.324Z,63.97
2023-02-16T13:46:50.365Z,59.03
2023-02-16T13:49:42.892Z,60.30
2023-02-16T13:52:42.596Z,64.78
2023-02-16T13:55:34.681Z,61.50
2023-02-16T13:58:31.849Z,60.83
2023-02-16T14:01:39.321Z,55.85
2023-02-16T14:04:27.161Z,59.50
2023-02-16T14:07:31.796Z,58.70
2023-02-16T14:10:56.694Z,60.08
2023-02-16T14:13:58.259Z,55.70
2023-02-16T14:16:46.836Z,57.08
2023-02-16T14:19:36.826Z,53.20
2023-02-16T14:22:48.921Z,61.92
2023-02-16T14:25:40.882Z,52.85
2023-02-16T14:28:32.178Z,66.97
2023-02-16T14:31:23.258Z,62.20
2023-02-16T14:34:24.537Z,61.00
2023-02-16T14:37:15.443Z,56.92
2023-02-16T14:40:31.108Z,62.53
2023-02-16T14:43:43.345Z,62.30
2023-02-16T14:46:58.433Z,57.03
2023-02-16T14:50:04.456Z,56.05
2023-02-16T14:53:10.467Z,64.22
2023-02-16T14:56:32.212Z,57.70
2023-02-16T14:59:32.842Z,59.60
2023-02-16T15:02:40.099Z,67.22
2023-02-16T15:05:34.747Z,61.45
2023-02-16T15:08:25.484Z,64.03
2023-02-16T15:11:23.744Z,61.60
2023-02-16T15:14:17.598Z,62.33
2023-02-16T15:17:08.618Z,67.85
2023-02-16T15:20:05.889Z,66.70
2023-02-16T15:23:11.918Z,60.72
2023-02-16T15:26:07.610Z,67.38
2023-02-16T15:28:59.903Z,64.95
2023-02-16T15:31:48.935Z,65.43
2023-02-16T15:34:41.448Z,67.93
2023-02-16T15:37:44.152Z,63.50
2023-02-16T15:40:37.457Z,60.03
2023-02-16T15:43:44.704Z,65.60
2023-02-16T15:46:38.721Z,65.70
2023-02-16T15:52:38.515Z,68.25
2023-02-16T15:55:27.260Z,65.13
2023-02-16T15:58:16.820Z,66.38
2023-02-16T16:01:05.094Z,67.97
2023-02-16T16:03:55.795Z,61.22
2023-02-16T16:06:51.920Z,67.78
2023-02-16T16:09:41.358Z,68.25
2023-02-16T16:12:31.989Z,75.00
2023-02-16T16:15:23.432Z,69.00
2023-02-16T16:18:46.726Z,61.70
2023-02-16T16:21:36.025Z,65.40
2023-02-16T16:24:42.650Z,69.30
2023-02-16T16:27:47.977Z,68.82
2023-02-16T16:30:45.429Z,67.82
2023-02-16T16:34:33.251Z,77.80
2023-02-16T16:37:33.634Z,71.82
2023-02-16T16:40:27.040Z,68.13
2023-02-16T16:43:17.439Z,66.50
2023-02-16T16:46:19.370Z,69.68
2023-02-16T16:49:15.901Z,70.38
2023-02-16T16:52:06.869Z,71.82
2023-02-16T16:54:54.420Z,76.05
2023-02-16T16:57:46.606Z,71.93
2023-02-16T17:00:42.723Z,66.80
2023-02-16T18:35:32.309Z,77.80
2023-02-16T18:38:54.722Z,86.20
2023-02-16T18:52:29.107Z,84.90
2023-02-16T18:55:54.674Z,95.20
2023-02-16T21:43:35.015Z,84.63
2023-02-16T21:50:24.247Z,86.05
2023-02-16T21:53:35.606Z,84.43
2023-02-16T22:19:59.173Z,58.17
2023-02-16T22:22:51.010Z,52.38
2023-02-16T22:30:00.284Z,52.42
2023-02-16T22:33:13.717Z,50.30
2023-02-16T22:36:33.954Z,52.42
2023-02-16T22:39:25.932Z,46.20
2023-02-16T22:42:19.207Z,53.65
2023-02-16T22:45:31.170Z,50.83
2023-02-16T22:52:34.218Z,47.97
2023-02-16T22:55:24.823Z,46.90
2023-02-16T23:01:43.914Z,53.83
2023-02-16T23:05:13.915Z,48.03
2023-02-16T23:08:24.687Z,44.85
2023-02-16T23:14:44.977Z,49.78
2023-02-16T23:18:06.824Z,44.03
2023-02-16T23:23:43.131Z,47.50
2023-02-16T23:26:37.840Z,47.28
2023-02-16T23:29:28.940Z,56.30
2023-02-16T23:32:56.182Z,53.00
2023-02-16T23:47:15.182Z,56.28
2023-02-16T23:50:21.910Z,54.58
